Time;durP1;ratioP1;P1;durP2;ratioP2;P2;SDS_P1;SDS_P2;PMS_P1;PMS_P2;Temp;Humidity;BMP_temperature;BMP_pressure;BME280_temperature;BME280_humidity;BME280_pressure;Samples;Min_cycle;Max_cycle;Signal;HPM_P1;HPM_P2
2023/09/04 00:02:09;;;;;;;6.32;2.92;;;;;;;17.38;76.47;101788.47;5011208;28;20042;-46
2023/09/04 00:04:37;;;;;;;4.25;2.10;;;;;;;17.33;76.92;101787.94;5013378;28;20144;-47
2023/09/04 00:07:04;;;;;;;8.30;2.78;;;;;;;17.30;76.71;101783.88;5013061;28;20494;-45
2023/09/04 00:09:31;;;;;;;5.05;2.92;;;;;;;17.28;76.88;101782.63;5014070;28;20158;-46
2023/09/04 00:11:57;;;;;;;6.03;2.45;;;;;;;17.24;76.78;101779.72;5014108;28;20042;-51
2023/09/04 00:14:25;;;;;;;6.53;2.58;;;;;;;17.21;76.96;101774.84;5012936;28;20050;-46
2023/09/04 00:16:52;;;;;;;7.63;3.05;;;;;;;17.18;77.04;101775.63;5013715;28;20064;-46
2023/09/04 00:19:19;;;;;;;10.05;3.08;;;;;;;17.17;77.13;101761.97;5013836;28;20050;-46
2023/09/04 00:21:45;;;;;;;4.93;2.42;;;;;;;17.15;77.07;101770.75;5013783;28;20050;-46
2023/09/04 00:24:13;;;;;;;4.97;2.95;;;;;;;17.15;77.19;101770.75;5012722;28;20492;-46
2023/09/04 00:26:39;;;;;;;5.22;2.25;;;;;;;17.16;77.02;101772.34;5012983;28;20038;-46
2023/09/04 00:29:06;;;;;;;5.45;2.85;;;;;;;17.13;77.17;101773.06;5013798;28;20037;-46
2023/09/04 00:31:33;;;;;;;7.82;2.38;;;;;;;17.10;77.35;101785.03;5014129;28;20042;-46
2023/09/04 00:34:00;;;;;;;9.00;3.33;;;;;;;17.07;77.38;101791.34;5012792;28;20064;-46
2023/09/04 00:36:27;;;;;;;8.88;2.65;;;;;;;17.07;77.48;101790.53;5013761;28;20049;-47
2023/09/04 00:38:54;;;;;;;5.25;2.28;;;;;;;17.05;77.41;101790.88;5013317;28;20046;-49
2023/09/04 00:41:21;;;;;;;7.65;2.88;;;;;;;17.02;77.45;101784.03;5013389;28;20136;-49
2023/09/04 00:43:48;;;;;;;5.93;3.05;;;;;;;16.97;77.52;101783.50;5012107;28;20133;-49
2023/09/04 00:46:15;;;;;;;10.65;2.63;;;;;;;16.94;77.82;101787.81;5013155;28;20453;-46
2023/09/04 00:48:43;;;;;;;5.53;2.95;;;;;;;16.92;77.91;101769.78;5013381;28;20464;-46
2023/09/04 00:51:10;;;;;;;6.82;2.92;;;;;;;16.90;78.00;101772.94;5011030;28;20041;-46
2023/09/04 00:53:38;;;;;;;5.18;2.80;;;;;;;16.90;78.01;101769.34;5008666;28;20411;-46
2023/09/04 00:56:06;;;;;;;3.22;2.45;;;;;;;16.86;78.00;101749.69;5010971;28;20041;-45
2023/09/04 00:58:34;;;;;;;4.18;2.63;;;;;;;16.83;78.20;101757.97;5013369;28;20061;-46
2023/09/04 01:01:02;;;;;;;5.07;2.13;;;;;;;16.79;78.29;101752.28;4994199;28;20045;-47
2023/09/04 01:03:30;;;;;;;9.75;2.63;;;;;;;16.78;78.29;101747.09;4996491;28;20045;-48
2023/09/04 01:05:57;;;;;;;5.35;2.67;;;;;;;16.76;78.23;101741.03;5011756;28;20046;-46
2023/09/04 01:08:25;;;;;;;4.05;2.60;;;;;;;16.72;78.36;101752.13;5011958;28;20519;-46
2023/09/04 01:11:11;;;;;;;7.00;2.58;;;;;;;16.67;78.38;101740.41;5011159;28;20050;-46
2023/09/04 01:13:44;;;;;;;4.38;2.53;;;;;;;16.63;78.49;101745.09;5010054;28;20104;-47
2023/09/04 01:16:11;;;;;;;6.53;2.60;;;;;;;16.63;78.32;101736.69;5006110;28;20053;-45
2023/09/04 01:18:43;;;;;;;5.97;2.15;;;;;;;16.56;78.58;101730.94;5010548;28;20107;-47
2023/09/04 01:21:10;;;;;;;6.95;2.70;;;;;;;16.49;78.76;101731.56;5011329;28;20050;-45
2023/09/04 01:23:37;;;;;;;8.25;3.28;;;;;;;16.51;78.71;101717.22;5008238;28;20060;-49
2023/09/04 01:26:31;;;;;;;3.92;2.25;;;;;;;16.48;78.65;101717.94;5009886;28;20049;-45
2023/09/04 01:29:20;;;;;;;7.15;2.85;;;;;;;16.42;78.72;101720.19;5012162;28;20053;-45
2023/09/04 01:31:59;;;;;;;6.90;2.60;;;;;;;16.40;78.72;101714.97;5000974;28;20535;-46
2023/09/04 01:34:29;;;;;;;7.28;2.60;;;;;;;16.35;78.63;101701.28;5010837;28;20139;-45
2023/09/04 01:36:57;;;;;;;2.92;1.83;;;;;;;16.32;78.70;101704.78;5007354;28;20053;-47
2023/09/04 01:39:26;;;;;;;4.05;2.72;;;;;;;16.25;79.09;101690.63;5009945;28;20048;-46
2023/09/04 01:41:53;;;;;;;2.60;1.92;;;;;;;16.22;79.06;101691.34;5011117;28;20050;-46
2023/09/04 01:44:20;;;;;;;5.35;2.60;;;;;;;16.21;79.10;101698.09;5010042;28;20547;-46
2023/09/04 01:46:47;;;;;;;5.28;2.75;;;;;;;16.19;79.04;101692.06;5013704;28;20046;-47
2023/09/04 01:49:14;;;;;;;4.55;2.45;;;;;;;16.19;79.21;101694.88;5009353;28;20046;-46
2023/09/04 01:51:41;;;;;;;5.95;2.78;;;;;;;16.19;78.84;101694.06;5008949;28;20403;-46
2023/09/04 01:54:08;;;;;;;4.55;2.65;;;;;;;16.14;79.06;101711.91;5009253;28;20133;-46
2023/09/04 01:56:35;;;;;;;3.22;2.40;;;;;;;16.10;79.05;101713.78;5010761;28;20046;-46
2023/09/04 01:59:02;;;;;;;3.17;1.95;;;;;;;16.09;79.17;101723.34;4992694;28;20536;-47
2023/09/04 02:01:29;;;;;;;6.78;2.67;;;;;;;16.06;79.24;101724.06;5013481;28;20046;-45
2023/09/04 02:03:58;;;;;;;6.40;2.85;;;;;;;16.02;79.38;101720.34;5011005;28;20050;-46
2023/09/04 02:06:28;;;;;;;8.65;3.17;;;;;;;15.99;79.42;101723.84;5011114;28;20049;-47
2023/09/04 02:08:55;;;;;;;6.10;3.10;;;;;;;15.98;79.59;101732.59;4999411;28;20070;-45
2023/09/04 02:11:22;;;;;;;8.25;2.90;;;;;;;15.98;79.61;101721.44;5011447;28;20049;-46
2023/09/04 02:13:49;;;;;;;11.88;4.22;;;;;;;15.98;79.47;101716.66;5011928;28;20053;-45
2023/09/04 02:16:16;;;;;;;6.03;2.95;;;;;;;15.94;79.79;101715.72;5010840;28;20409;-46
2023/09/04 02:18:45;;;;;;;6.43;3.13;;;;;;;15.91;79.64;101707.28;5011798;28;20057;-47
2023/09/04 02:21:12;;;;;;;8.85;3.20;;;;;;;15.89;79.98;101713.19;5011386;28;20053;-45
2023/09/04 02:23:39;;;;;;;6.10;3.75;;;;;;;15.84;79.90;101705.09;5011356;28;20160;-46
2023/09/04 02:26:06;;;;;;;7.50;3.75;;;;;;;15.81;80.10;101700.22;5011392;28;20492;-45
2023/09/04 02:28:33;;;;;;;10.35;3.92;;;;;;;15.78;80.45;101706.50;5011723;28;20132;-46
2023/09/04 02:31:07;;;;;;;10.30;4.35;;;;;;;15.74;80.66;101689.69;5010228;28;20073;-46
2023/09/04 02:33:35;;;;;;;7.20;4.32;;;;;;;15.71;80.56;101689.56;5011548;28;20053;-45
2023/09/04 02:36:01;;;;;;;8.88;3.90;;;;;;;15.70;80.72;101682.38;5011341;28;20080;-47
2023/09/04 02:38:29;;;;;;;10.25;4.22;;;;;;;15.68;80.89;101673.53;5011460;28;20104;-45
2023/09/04 02:40:55;;;;;;;7.55;3.72;;;;;;;15.65;80.71;101661.09;5011343;28;20038;-46
2023/09/04 02:43:23;;;;;;;6.25;3.72;;;;;;;15.61;81.16;101664.97;5011290;28;20447;-47
2023/09/04 02:45:51;;;;;;;8.00;3.50;;;;;;;15.59;81.34;101661.72;4992893;28;20050;-45
2023/09/04 02:48:18;;;;;;;9.93;4.07;;;;;;;15.57;81.31;101666.84;5011396;28;20070;-46
2023/09/04 02:50:45;;;;;;;9.15;4.32;;;;;;;15.55;81.52;101674.75;5011292;28;20407;-45
2023/09/04 02:53:12;;;;;;;5.80;3.78;;;;;;;15.52;81.68;101669.88;5011463;28;20517;-45
2023/09/04 02:55:39;;;;;;;8.50;3.45;;;;;;;15.52;81.66;101684.66;5010255;28;20042;-46
2023/09/04 02:58:08;;;;;;;9.02;4.43;;;;;;;15.51;81.70;101680.25;5008620;28;20056;-46
2023/09/04 03:03:02;;;;;;;7.28;3.40;;;;;;;15.51;81.55;101690.63;4967392;28;20047;-46
2023/09/04 03:05:29;;;;;;;6.65;3.80;;;;;;;15.48;81.62;101694.09;4971691;28;20146;-45
2023/09/04 03:07:56;;;;;;;5.00;3.35;;;;;;;15.47;81.62;101692.47;4973299;28;20075;-46
2023/09/04 03:10:23;;;;;;;8.90;4.25;;;;;;;15.45;81.55;101692.81;4958357;28;20059;-45
2023/09/04 03:12:50;;;;;;;7.75;4.55;;;;;;;15.42;81.82;101681.53;4970037;28;20046;-46
2023/09/04 03:15:17;;;;;;;8.65;4.35;;;;;;;15.37;82.10;101674.25;4967868;28;20523;-48
2023/09/04 03:17:44;;;;;;;7.50;3.63;;;;;;;15.35;82.25;101664.59;4970815;28;20061;-46
2023/09/04 03:20:12;;;;;;;9.43;4.35;;;;;;;15.32;82.33;101662.53;4970535;28;20492;-45
2023/09/04 03:22:39;;;;;;;14.45;5.45;;;;;;;15.31;82.51;101669.25;4973801;28;20129;-46
2023/09/04 03:25:06;;;;;;;6.18;3.63;;;;;;;15.31;82.67;101666.47;4972358;28;20069;-45
2023/09/04 03:27:33;;;;;;;9.32;3.97;;;;;;;15.33;82.34;101666.94;4970295;28;20059;-45
2023/09/04 03:30:00;;;;;;;9.68;4.30;;;;;;;15.30;82.55;101653.69;4971708;28;20496;-45
2023/09/04 03:32:27;;;;;;;6.30;3.90;;;;;;;15.27;82.78;101657.19;4970328;28;20053;-47
2023/09/04 03:34:55;;;;;;;10.38;3.92;;;;;;;15.24;82.85;101651.16;4971112;28;20053;-47
2023/09/04 03:37:22;;;;;;;8.90;3.30;;;;;;;15.24;82.85;101659.53;4969241;28;20049;-45
2023/09/04 03:39:48;;;;;;;10.00;4.43;;;;;;;15.23;82.96;101657.91;4972187;28;20531;-46
2023/09/04 03:42:15;;;;;;;9.07;3.95;;;;;;;15.22;83.00;101650.69;4973468;28;20043;-46
2023/09/04 03:44:42;;;;;;;9.15;4.25;;;;;;;15.22;83.12;101649.91;4973804;28;20400;-46
2023/09/04 03:47:10;;;;;;;6.22;3.08;;;;;;;15.20;83.18;101641.88;4971654;28;20085;-45
2023/09/04 03:49:36;;;;;;;7.43;3.70;;;;;;;15.20;83.38;101641.03;4974630;28;20062;-45
2023/09/04 03:52:04;;;;;;;10.32;4.43;;;;;;;15.18;83.14;101630.25;4974593;28;20074;-46
2023/09/04 03:54:31;;;;;;;12.80;5.32;;;;;;;15.17;83.33;101634.19;4973277;28;20038;-45
2023/09/04 03:56:58;;;;;;;7.30;3.83;;;;;;;15.11;83.58;101610.53;4974490;28;20057;-46
2023/09/04 03:59:25;;;;;;;6.65;3.63;;;;;;;15.08;83.69;101619.63;4972138;28;20047;-46
2023/09/04 04:01:53;;;;;;;7.63;3.70;;;;;;;15.05;83.80;101620.31;4975514;28;20086;-47
2023/09/04 04:04:20;;;;;;;8.50;3.72;;;;;;;15.07;83.77;101625.53;4962677;28;20089;-46
2023/09/04 04:06:47;;;;;;;11.10;4.82;;;;;;;15.06;83.59;101621.91;4973995;28;20082;-45
2023/09/04 04:09:15;;;;;;;10.45;4.05;;;;;;;15.04;83.74;101621.47;4974594;28;20043;-46
2023/09/04 04:11:43;;;;;;;5.07;3.10;;;;;;;15.02;83.94;101629.38;4971782;28;20058;-47
2023/09/04 04:14:10;;;;;;;11.95;4.28;;;;;;;15.01;83.79;101632.53;4972438;28;20082;-45
2023/09/04 04:16:37;;;;;;;5.30;3.50;;;;;;;15.00;83.78;101626.16;4972876;28;20062;-45
2023/09/04 04:19:04;;;;;;;8.40;4.35;;;;;;;14.99;83.81;101626.47;4976909;28;20047;-46
2023/09/04 04:21:31;;;;;;;11.85;5.05;;;;;;;14.98;83.79;101627.66;4974871;28;20042;-46
2023/09/04 04:23:58;;;;;;;9.20;3.38;;;;;;;14.95;83.74;101629.19;4974010;28;20706;-46
2023/09/04 04:26:25;;;;;;;8.27;3.47;;;;;;;14.94;83.71;101633.13;4970474;28;20433;-45
2023/09/04 04:28:52;;;;;;;6.68;3.78;;;;;;;14.92;83.89;101623.50;4973536;28;20049;-47
2023/09/04 04:31:21;;;;;;;12.85;4.13;;;;;;;14.88;83.83;101617.81;4974004;28;20089;-46
2023/09/04 04:33:48;;;;;;;7.88;5.10;;;;;;;14.84;84.26;101616.91;4973811;28;20122;-45
2023/09/04 04:36:15;;;;;;;5.47;3.42;;;;;;;14.82;84.37;101613.66;4972291;28;20055;-46
2023/09/04 04:38:42;;;;;;;11.27;3.78;;;;;;;14.75;84.52;101605.06;4975453;28;20055;-45
2023/09/04 04:41:09;;;;;;;4.90;3.60;;;;;;;14.72;84.80;101597.41;4973858;28;20051;-46
2023/09/04 04:43:36;;;;;;;11.25;4.90;;;;;;;14.74;84.81;101595.09;4975191;28;20046;-46
2023/09/04 04:46:03;;;;;;;5.78;3.40;;;;;;;14.73;84.63;101603.78;4969736;28;20049;-45
2023/09/04 04:48:30;;;;;;;7.30;3.38;;;;;;;14.72;84.65;101600.19;4971800;28;20050;-45
2023/09/04 04:50:57;;;;;;;7.22;3.38;;;;;;;14.71;84.31;101593.00;4972050;28;20500;-46
2023/09/04 04:53:24;;;;;;;6.53;3.72;;;;;;;14.70;84.48;101593.34;4971036;28;20090;-46
2023/09/04 04:55:51;;;;;;;9.07;4.10;;;;;;;14.68;84.41;101592.88;4972208;28;20068;-47
2023/09/04 04:58:18;;;;;;;5.60;3.92;;;;;;;14.65;84.56;101588.84;4972403;28;20466;-45
2023/09/04 05:00:45;;;;;;;8.63;3.95;;;;;;;14.66;84.64;101598.84;4971631;28;20129;-45
2023/09/04 05:03:12;;;;;;;8.60;4.20;;;;;;;14.70;84.71;101598.91;4972535;28;20058;-46
2023/09/04 05:05:45;;;;;;;6.68;4.40;;;;;;;14.69;84.68;101592.56;4976078;28;20058;-45
2023/09/04 05:08:13;;;;;;;7.53;4.50;;;;;;;14.66;84.95;101592.44;4970817;28;20097;-47
2023/09/04 05:10:40;;;;;;;6.65;4.10;;;;;;;14.63;84.81;101588.38;4976438;28;20035;-46
2023/09/04 05:13:07;;;;;;;7.78;4.13;;;;;;;14.61;85.11;101599.09;4974720;28;20050;-48
2023/09/04 05:15:34;;;;;;;11.13;4.28;;;;;;;14.62;85.07;101603.47;4972697;28;20042;-45
2023/09/04 05:18:01;;;;;;;8.93;5.15;;;;;;;14.60;85.00;101594.66;4971055;28;20488;-46
2023/09/04 05:20:28;;;;;;;8.52;4.57;;;;;;;14.58;85.15;101605.34;4969509;28;20492;-47
2023/09/04 05:22:54;;;;;;;5.82;4.43;;;;;;;14.56;85.25;101610.47;4972403;28;20058;-46
2023/09/04 05:25:21;;;;;;;9.40;4.28;;;;;;;14.52;85.30;101609.53;4970753;28;20397;-45
2023/09/04 05:27:52;;;;;;;9.63;4.20;;;;;;;14.51;85.35;101599.53;4970160;28;20555;-46
2023/09/04 05:30:19;;;;;;;5.43;4.03;;;;;;;14.49;85.46;101613.00;4971083;28;20539;-46
2023/09/04 05:32:46;;;;;;;6.38;3.95;;;;;;;14.49;85.41;101610.22;4970679;28;20045;-46
2023/09/04 05:35:13;;;;;;;7.50;4.72;;;;;;;14.45;85.49;101614.91;4973175;28;20045;-47
2023/09/04 05:37:42;;;;;;;6.68;3.90;;;;;;;14.43;85.57;101611.63;4972807;28;20035;-45
2023/09/04 05:40:09;;;;;;;8.93;4.38;;;;;;;14.41;85.68;101619.53;4971955;28;20043;-46
2023/09/04 05:42:36;;;;;;;6.22;4.05;;;;;;;14.40;85.64;101609.56;4974232;28;20492;-47
2023/09/04 05:45:03;;;;;;;5.90;3.75;;;;;;;14.37;85.82;101613.03;4972631;28;20051;-45
2023/09/04 05:47:30;;;;;;;6.35;4.18;;;;;;;14.38;86.00;101609.06;4975129;28;20062;-45
2023/09/04 05:49:57;;;;;;;10.90;5.75;;;;;;;14.38;85.93;101620.22;4971968;28;20051;-45
2023/09/04 05:52:24;;;;;;;6.97;4.00;;;;;;;14.37;85.85;101621.41;4970764;28;20031;-45
2023/09/04 05:54:51;;;;;;;9.70;3.95;;;;;;;14.38;86.00;101614.66;4970187;28;20078;-46
2023/09/04 05:57:18;;;;;;;9.95;4.30;;;;;;;14.38;85.82;101620.22;4971841;28;20046;-46
2023/09/04 05:59:46;;;;;;;7.88;3.97;;;;;;;14.36;85.93;101617.81;4973057;28;20165;-46
2023/09/04 06:02:13;;;;;;;10.52;4.85;;;;;;;14.39;86.13;101627.44;4971208;28;20150;-45
2023/09/04 06:04:40;;;;;;;7.50;3.80;;;;;;;14.40;86.22;101623.50;4970584;28;20109;-46
2023/09/04 06:07:10;;;;;;;11.55;4.68;;;;;;;14.41;86.23;101619.53;4971335;28;20109;-46
2023/09/04 06:09:40;;;;;;;8.85;4.60;;;;;;;14.42;86.13;101613.63;4972334;28;20117;-46
2023/09/04 06:12:13;;;;;;;5.93;4.35;;;;;;;14.45;86.23;101612.94;4969763;28;20432;-45
2023/09/04 06:14:40;;;;;;;4.53;3.05;;;;;;;14.47;86.28;101618.13;4966966;28;20088;-46
2023/09/04 06:17:07;;;;;;;10.98;4.13;;;;;;;14.55;86.31;101614.41;4972343;28;20515;-45
2023/09/04 06:19:34;;;;;;;8.88;4.22;;;;;;;14.62;86.53;101614.63;4974414;28;20061;-46
2023/09/04 06:22:01;;;;;;;7.57;4.95;;;;;;;14.72;86.57;101607.75;4972870;28;20053;-45
2023/09/04 06:24:28;;;;;;;7.07;4.13;;;;;;;14.83;86.67;101609.69;4972497;28;20507;-47
2023/09/04 06:26:55;;;;;;;8.13;4.80;;;;;;;14.94;86.71;101607.22;4972696;28;20485;-45
2023/09/04 06:29:22;;;;;;;8.48;5.70;;;;;;;15.02;86.82;101595.91;4972532;28;20109;-45
2023/09/04 06:31:49;;;;;;;8.32;4.68;;;;;;;15.10;86.92;101606.13;4954070;28;20046;-45
2023/09/04 06:34:16;;;;;;;6.32;4.80;;;;;;;15.13;86.97;101602.63;4978978;28;20050;-45
2023/09/04 06:36:43;;;;;;;12.60;7.03;;;;;;;15.20;87.38;101599.22;4972719;28;20049;-44
2023/09/04 06:39:10;;;;;;;13.02;7.40;;;;;;;15.25;87.75;101596.16;4972583;28;20054;-45
2023/09/04 06:41:37;;;;;;;12.85;7.63;;;;;;;15.30;88.16;101598.72;4972351;28;20042;-45
2023/09/04 06:44:04;;;;;;;12.32;6.47;;;;;;;15.36;88.71;101599.25;4972371;28;20093;-46
2023/09/04 06:46:31;;;;;;;11.10;5.90;;;;;;;15.39;89.12;101588.19;4972536;28;20057;-46
2023/09/04 06:48:57;;;;;;;10.63;5.97;;;;;;;15.45;89.36;101585.94;4971115;28;20043;-45
2023/09/04 06:51:24;;;;;;;7.63;5.50;;;;;;;15.50;89.59;101582.94;4972322;28;20039;-45
2023/09/04 06:53:51;;;;;;;9.75;4.90;;;;;;;15.55;89.92;101585.44;4972329;28;20134;-45
2023/09/04 06:56:18;;;;;;;14.05;6.03;;;;;;;15.59;89.96;101576.03;4973060;28;20055;-48
2023/09/04 06:58:45;;;;;;;8.55;5.55;;;;;;;15.65;90.18;101587.69;4971309;28;20149;-45
2023/09/04 07:01:12;;;;;;;6.65;4.80;;;;;;;15.69;90.60;101574.66;4970307;28;20054;-46
2023/09/04 07:03:39;;;;;;;7.88;5.35;;;;;;;15.73;90.47;101569.97;4972101;28;20062;-45
2023/09/04 07:06:07;;;;;;;6.22;4.18;;;;;;;15.78;90.89;101575.28;4972463;28;20461;-45
2023/09/04 07:08:34;;;;;;;6.90;3.65;;;;;;;15.84;91.07;101588.63;4971852;28;20444;-47
2023/09/04 07:11:01;;;;;;;10.13;4.25;;;;;;;15.88;91.25;101587.91;4967749;28;20050;-45
2023/09/04 07:13:27;;;;;;;8.05;4.38;;;;;;;15.93;91.33;101587.63;4969874;28;20059;-45
2023/09/04 07:15:54;;;;;;;6.00;4.00;;;;;;;15.97;91.35;101582.94;4974923;28;20492;-45
2023/09/04 07:18:21;;;;;;;5.07;3.42;;;;;;;16.01;91.34;101584.66;4974817;28;20093;-48
2023/09/04 07:20:48;;;;;;;6.88;3.90;;;;;;;16.02;91.29;101583.47;4975057;28;20051;-46
2023/09/04 07:23:14;;;;;;;12.55;5.57;;;;;;;16.09;91.32;101580.88;4975625;28;20051;-47
2023/09/04 07:25:52;;;;;;;7.57;3.42;;;;;;;16.12;91.32;101584.94;4976073;28;20061;-50
2023/09/04 07:28:19;;;;;;;6.83;3.70;;;;;;;16.15;91.34;101576.59;4974823;28;20062;-51
2023/09/04 07:30:46;;;;;;;33.53;19.27;;;;;;;16.18;91.22;101589.84;4973617;28;20296;-49
2023/09/04 07:33:13;;;;;;;6.85;4.30;;;;;;;16.22;90.92;101582.38;4977560;28;20496;-48
2023/09/04 07:35:40;;;;;;;5.85;3.33;;;;;;;16.27;90.83;101589.66;4975790;28;20050;-49
2023/09/04 07:38:07;;;;;;;5.03;3.17;;;;;;;16.30;90.44;101584.19;4975559;28;20125;-49
2023/09/04 07:40:34;;;;;;;4.25;2.95;;;;;;;16.35;90.13;101574.69;4975470;28;20042;-51
2023/09/04 07:43:01;;;;;;;4.70;2.47;;;;;;;16.38;90.14;101569.19;4975324;28;20502;-47
2023/09/04 07:45:28;;;;;;;5.50;2.65;;;;;;;16.44;89.98;101561.34;4974054;28;20058;-47
2023/09/04 07:47:55;;;;;;;4.40;2.40;;;;;;;16.51;89.72;101571.84;4971757;28;20493;-49
2023/09/04 07:50:22;;;;;;;3.92;1.70;;;;;;;16.56;89.37;101577.19;4974993;28;20074;-49
2023/09/04 07:52:49;;;;;;;4.35;2.70;;;;;;;16.61;89.30;101574.91;4976355;28;20404;-49
2023/09/04 07:55:16;;;;;;;3.45;2.42;;;;;;;16.66;89.08;101585.00;4973752;28;20114;-49
2023/09/04 07:57:43;;;;;;;3.17;2.38;;;;;;;16.70;88.89;101574.72;4974339;28;20074;-51
2023/09/04 08:00:11;;;;;;;2.78;2.13;;;;;;;16.75;88.86;101572.44;4975147;28;20051;-48
2023/09/04 08:02:38;;;;;;;4.00;2.60;;;;;;;16.81;88.75;101575.75;4974707;28;20124;-49
2023/09/04 08:05:06;;;;;;;2.97;1.88;;;;;;;16.87;88.44;101563.88;4974949;28;20047;-50
2023/09/04 08:07:32;;;;;;;4.90;2.50;;;;;;;16.95;88.53;101562.88;4974772;28;20053;-52
2023/09/04 08:10:01;;;;;;;4.80;2.10;;;;;;;17.01;88.51;101558.59;4974746;28;20047;-49
2023/09/04 08:12:28;;;;;;;6.30;1.92;;;;;;;17.10;88.38;101552.78;4972275;28;20097;-51
2023/09/04 08:14:54;;;;;;;5.30;2.03;;;;;;;17.18;88.53;101557.34;4974867;28;20062;-49
2023/09/04 08:17:21;;;;;;;3.38;1.85;;;;;;;17.28;88.69;101567.91;4973426;28;20469;-45
2023/09/04 08:19:48;;;;;;;2.35;1.70;;;;;;;17.43;88.74;101564.19;4975760;28;20050;-46
2023/09/04 08:22:15;;;;;;;2.47;1.73;;;;;;;17.53;88.88;101569.22;4985260;28;20039;-46
2023/09/04 08:24:42;;;;;;;2.65;1.63;;;;;;;17.67;89.60;101563.06;4972604;28;20050;-48
2023/09/04 08:27:08;;;;;;;1.92;1.70;;;;;;;17.81;90.35;101573.72;4972897;28;20047;-46
2023/09/04 08:29:35;;;;;;;3.00;1.70;;;;;;;17.93;91.16;101570.69;4972800;28;20046;-45
2023/09/04 08:32:02;;;;;;;5.55;1.90;;;;;;;18.07;92.33;101568.13;4973073;28;20048;-46
2023/09/04 08:34:29;;;;;;;4.50;1.42;;;;;;;18.24;92.97;101571.19;4973889;28;20066;-46
2023/09/04 08:36:56;;;;;;;3.00;1.73;;;;;;;18.43;94.21;101563.88;4975281;28;20065;-45
2023/09/04 08:39:22;;;;;;;2.22;2.03;;;;;;;18.64;95.74;101565.00;4973683;28;20047;-46
2023/09/04 08:41:50;;;;;;;2.15;1.35;;;;;;;18.91;96.99;101545.31;4973768;28;20039;-46
2023/09/04 08:44:20;;;;;;;1.90;1.50;;;;;;;19.26;97.68;101559.75;4974336;28;20050;-46
2023/09/04 08:46:51;;;;;;;3.63;1.80;;;;;;;19.69;97.77;101561.03;4971090;28;20137;-46
2023/09/04 08:49:19;;;;;;;2.17;1.70;;;;;;;20.29;96.46;101561.53;4971287;28;20444;-46
2023/09/04 08:51:46;;;;;;;1.75;1.60;;;;;;;21.12;91.85;101560.38;4972860;28;20758;-46
2023/09/04 08:54:14;;;;;;;3.00;2.28;;;;;;;22.13;86.02;101571.41;4979419;28;20048;-44
2023/09/04 08:56:41;;;;;;;1.58;1.42;;;;;;;23.13;80.77;101576.41;4979718;28;20051;-47
2023/09/04 08:59:08;;;;;;;2.47;1.15;;;;;;;24.10;74.86;101566.91;4967929;28;20082;-44
2023/09/04 09:01:36;;;;;;;1.35;1.20;;;;;;;25.03;70.20;101567.53;4973113;28;20062;-46
2023/09/04 09:04:04;;;;;;;1.13;1.13;;;;;;;25.86;66.23;101567.56;4972865;28;20424;-44
2023/09/04 09:06:32;;;;;;;2.05;1.27;;;;;;;26.56;62.87;101573.22;4971927;28;20145;-45
2023/09/04 09:09:00;;;;;;;1.67;1.55;;;;;;;27.16;60.28;101575.63;4973147;28;20054;-50
2023/09/04 09:11:27;;;;;;;4.18;1.40;;;;;;;27.66;57.79;101571.72;4972852;28;20583;-44
2023/09/04 09:13:54;;;;;;;3.85;1.58;;;;;;;28.10;55.72;101579.56;4973902;28;20501;-45
2023/09/04 09:16:21;;;;;;;1.50;1.40;;;;;;;28.49;53.57;101578.53;4975347;28;20050;-44
2023/09/04 09:18:49;;;;;;;3.15;1.30;;;;;;;28.76;51.65;101572.53;4985629;28;20047;-46
2023/09/04 09:21:26;;;;;;;1.33;1.20;;;;;;;28.89;52.31;101567.66;4973713;28;20046;-49
2023/09/04 09:24:18;;;;;;;1.60;1.27;;;;;;;29.17;51.29;101572.53;4973460;28;20055;-44
2023/09/04 09:26:49;;;;;;;2.97;1.20;;;;;;;29.35;48.98;101572.00;4961851;28;20039;-44
2023/09/04 09:29:19;;;;;;;3.92;1.55;;;;;;;29.51;47.70;101569.88;4986812;28;20144;-44
2023/09/04 09:31:48;;;;;;;1.70;1.20;;;;;;;29.73;45.76;101572.03;4973531;28;20063;-44
2023/09/04 09:34:15;;;;;;;1.60;1.45;;;;;;;29.96;45.45;101565.97;4973807;28;20043;-45
2023/09/04 09:36:42;;;;;;;1.70;1.60;;;;;;;30.22;44.67;101556.09;4971980;28;20047;-44
2023/09/04 09:39:09;;;;;;;1.30;1.10;;;;;;;30.42;43.99;101570.13;4972391;28;20062;-44
2023/09/04 09:41:36;;;;;;;1.60;1.45;;;;;;;30.54;43.19;101570.06;4972582;28;20046;-44
2023/09/04 09:44:04;;;;;;;2.60;1.60;;;;;;;30.55;42.48;101568.78;4970157;28;20039;-46
2023/09/04 09:46:37;;;;;;;1.40;1.30;;;;;;;30.57;42.28;101566.28;4953429;28;20061;-44
2023/09/04 09:49:06;;;;;;;2.50;1.67;;;;;;;30.67;42.14;101562.25;4969396;28;20097;-44
2023/09/04 09:51:33;;;;;;;1.88;1.50;;;;;;;30.63;41.99;101564.41;4971761;28;20059;-44
2023/09/04 09:54:00;;;;;;;1.75;1.65;;;;;;;30.61;41.26;101555.50;4978082;28;20058;-43
2023/09/04 09:56:27;;;;;;;1.42;1.33;;;;;;;30.70;41.65;101552.75;4972998;28;20051;-44
2023/09/04 09:58:56;;;;;;;2.40;2.15;;;;;;;30.69;40.94;101568.28;4970778;28;20093;-44
2023/09/04 10:01:26;;;;;;;2.53;2.33;;;;;;;30.82;40.89;101567.44;4972923;28;20051;-44
2023/09/04 10:03:53;;;;;;;1.95;1.67;;;;;;;30.82;40.40;101558.88;4970504;28;20507;-45
2023/09/04 10:06:23;;;;;;;3.38;2.00;;;;;;;30.69;39.91;101545.41;4971232;28;20397;-45
2023/09/04 10:08:52;;;;;;;3.47;2.08;;;;;;;30.53;39.76;101537.03;4969639;28;20496;-45
2023/09/04 10:11:19;;;;;;;3.85;2.00;;;;;;;30.55;40.01;101540.22;4972589;28;20532;-45
2023/09/04 10:13:54;;;;;;;3.22;2.05;;;;;;;30.57;40.30;101534.84;4970415;28;20109;-44
2023/09/04 10:16:30;;;;;;;2.05;1.70;;;;;;;30.53;39.94;101530.50;4968142;28;20523;-45
2023/09/04 10:18:59;;;;;;;2.42;1.70;;;;;;;30.49;39.94;101536.38;4968205;28;20038;-45
2023/09/04 10:21:34;;;;;;;1.70;1.60;;;;;;;30.43;40.44;101526.78;4970526;28;20062;-44
2023/09/04 10:24:05;;;;;;;7.30;2.00;;;;;;;30.64;40.03;101520.28;4965140;28;20119;-44
2023/09/04 10:26:38;;;;;;;;;;;;;;;30.43;40.96;101521.06;4968039;28;21464;-44
2023/09/04 10:29:11;;;;;;;2.55;1.85;;;;;;;30.46;40.56;101516.50;4971151;28;19926;-45
2023/09/04 10:31:39;;;;;;;2.20;1.92;;;;;;;30.52;40.22;101518.31;4971956;28;20051;-44
2023/09/04 10:34:07;;;;;;;1.77;1.50;;;;;;;30.56;39.86;101518.16;4973095;28;20066;-44
2023/09/04 10:36:34;;;;;;;1.38;1.27;;;;;;;30.53;39.46;101519.88;4970599;28;20145;-44
2023/09/04 10:39:03;;;;;;;3.05;2.75;;;;;;;30.38;39.54;101515.97;4974696;28;20500;-45
2023/09/04 10:41:33;;;;;;;3.42;1.67;;;;;;;30.18;39.90;101506.88;4961669;28;20967;-47
2023/09/04 10:44:00;;;;;;;3.85;1.98;;;;;;;30.00;39.99;101503.81;4957682;28;20046;-44
2023/09/04 10:46:28;;;;;;;1.85;1.52;;;;;;;29.75;40.45;101498.94;4968033;28;20125;-45
2023/09/04 10:48:55;;;;;;;3.30;1.90;;;;;;;29.43;40.88;101497.16;4967118;28;20041;-46
2023/09/04 10:51:33;;;;;;;3.00;1.73;;;;;;;28.99;41.32;101506.69;4967319;28;20571;-44
2023/09/04 10:54:03;;;;;;;3.42;1.70;;;;;;;28.37;42.75;101503.19;4972607;28;20042;-45
2023/09/04 10:56:52;;;;;;;1.85;1.75;;;;;;;27.81;44.04;101498.97;4968344;28;20047;-44
2023/09/04 10:59:19;;;;;;;2.00;1.63;;;;;;;27.45;44.73;101487.69;4967423;28;20069;-44
2023/09/04 11:01:46;;;;;;;3.30;1.88;;;;;;;27.04;45.88;101496.72;4969455;28;20063;-45
2023/09/04 11:04:31;;;;;;;1.92;1.70;;;;;;;26.53;46.59;101488.88;4971439;28;20055;-46
2023/09/04 11:07:21;;;;;;;4.55;2.45;;;;;;;26.03;48.04;101486.97;4967476;28;20081;-44
2023/09/04 11:09:51;;;;;;;2.65;1.77;;;;;;;25.74;49.39;101479.41;4960999;28;20050;-44
2023/09/04 11:12:25;;;;;;;2.60;2.15;;;;;;;25.51;49.78;101480.19;4970459;28;20046;-44
2023/09/04 11:14:54;;;;;;;2.28;1.90;;;;;;;25.30;50.44;101480.50;4967745;28;20071;-44
2023/09/04 11:17:28;;;;;;;2.05;1.73;;;;;;;25.10;51.18;101473.94;4971651;28;20408;-45
2023/09/04 11:19:55;;;;;;;2.50;1.77;;;;;;;24.91;51.29;101474.59;4967000;28;20120;-45
2023/09/04 11:22:26;;;;;;;2.10;1.90;;;;;;;24.75;52.19;101473.13;4971134;28;20035;-44
2023/09/04 11:24:54;;;;;;;3.67;1.80;;;;;;;24.52;52.74;101481.53;4968511;28;20404;-43
2023/09/04 11:27:23;;;;;;;4.00;2.10;;;;;;;24.29;53.06;101489.09;4970533;28;20147;-43
2023/09/04 11:29:50;;;;;;;1.40;1.30;;;;;;;24.05;53.55;101479.63;4971962;28;20051;-44
2023/09/04 11:32:18;;;;;;;4.18;2.17;;;;;;;23.90;53.85;101486.63;4967093;28;20057;-45